Accueil
METAR-TAF:

METAR-TAF

Aéroports :

Aéroport de Pampelune

Pampelune, Espagne

latitude: 42-46N, longitude: 001-38W, altitude: 459 m

Observation

Le bulletin a été fait il y a 27 minutes, à 03:30 UTC
Vent 4 kt de nord-ouest
Température 14°C
Humidité 77%
Pression 1021 hPa
Visibilité 10 km ou plus
pas de nuages en-dessous de 1500 mètres et pas de cumulonimbus.

METAR: LEPP 230330Z 32004KT CAVOK 14/10 Q1021

Heure: 05:57 (03:57 UTC)

Prévision

Le bulletin a été fait il y a 1 heure et 57 minutes, à 02:00 UTC
Prévision valable du 23 à 03 UTC au 24 à 03 UTC
Vent 9 kt de nord/nord-ouest
Visibilité 10 km ou plus
Nuages épars à une hauteur de 3000 ft

TAF: LEPP 230200Z 2303/2403 33009KT 9999 SCT030 TX27/2315Z TN16/2305Z

Observations et prévisions météorologiques de plus de 4000 aéroports (messages METAR et TAF).

Les stations disponibles sont représentées par des disques jaunes et rouges sur la carte.

Passer la souris dessus pour voir le nom de la station.

Cliquer dessus pour voir les observations et prévisions météorologiques.

Pour changer de carte: cliquez sur les boutons verts avec une croix noire pour zoomer, sur le bouton vert avec un tiret pour effectuer un zoom arrière, ou sur les flèches vertes pour les cartes adjacentes.


METAR-TAF: